sensor_id;sensor_type;location;lat;lon;timestamp;temperature;humidity
21815;DHT22;11069;48.988;8.450;2022-08-20T00:00:47;20.60;99.90
21815;DHT22;11069;48.988;8.450;2022-08-20T00:03:29;20.50;99.90
21815;DHT22;11069;48.988;8.450;2022-08-20T00:06:00;20.50;99.90
21815;DHT22;11069;48.988;8.450;2022-08-20T00:08:26;20.60;99.90
21815;DHT22;11069;48.988;8.450;2022-08-20T00:10:52;20.70;99.90
21815;DHT22;11069;48.988;8.450;2022-08-20T00:13:25;20.50;99.90
21815;DHT22;11069;48.988;8.450;2022-08-20T00:15:51;20.40;99.90
21815;DHT22;11069;48.988;8.450;2022-08-20T00:18:17;20.50;99.90
21815;DHT22;11069;48.988;8.450;2022-08-20T00:20:46;20.50;99.90
21815;DHT22;11069;48.988;8.450;2022-08-20T00:23:13;20.50;99.90
21815;DHT22;11069;48.988;8.450;2022-08-20T00:25:38;20.60;99.90
21815;DHT22;11069;48.988;8.450;2022-08-20T00:28:05;20.60;99.90
21815;DHT22;11069;48.988;8.450;2022-08-20T00:30:33;20.60;99.90
21815;DHT22;11069;48.988;8.450;2022-08-20T00:33:06;20.70;99.90
21815;DHT22;11069;48.988;8.450;2022-08-20T00:35:35;20.70;99.90
21815;DHT22;11069;48.988;8.450;2022-08-20T00:38:01;20.80;99.90
21815;DHT22;11069;48.988;8.450;2022-08-20T00:40:32;20.80;99.90
21815;DHT22;11069;48.988;8.450;2022-08-20T00:42:59;20.80;99.90
21815;DHT22;11069;48.988;8.450;2022-08-20T00:45:30;20.80;99.90
21815;DHT22;11069;48.988;8.450;2022-08-20T00:47:56;20.90;99.90
21815;DHT22;11069;48.988;8.450;2022-08-20T00:50:29;20.90;99.90
21815;DHT22;11069;48.988;8.450;2022-08-20T00:52:57;20.90;99.90
21815;DHT22;11069;48.988;8.450;2022-08-20T00:55:25;21.00;99.90
21815;DHT22;11069;48.988;8.450;2022-08-20T00:57:54;21.00;99.90
21815;DHT22;11069;48.988;8.450;2022-08-20T01:00:25;21.10;99.90
21815;DHT22;11069;48.988;8.450;2022-08-20T01:02:53;21.00;99.90
21815;DHT22;11069;48.988;8.450;2022-08-20T01:05:19;21.00;99.90
21815;DHT22;11069;48.988;8.450;2022-08-20T01:07:49;21.00;99.90
21815;DHT22;11069;48.988;8.450;2022-08-20T01:10:21;21.00;99.90
21815;DHT22;11069;48.988;8.450;2022-08-20T01:12:48;21.00;99.90
21815;DHT22;11069;48.988;8.450;2022-08-20T01:15:17;20.90;99.90
21815;DHT22;11069;48.988;8.450;2022-08-20T01:17:49;20.80;99.90
21815;DHT22;11069;48.988;8.450;2022-08-20T01:20:38;20.80;99.90
21815;DHT22;11069;48.988;8.450;2022-08-20T01:28:35;20.60;99.90
21815;DHT22;11069;48.988;8.450;2022-08-20T01:31:06;20.60;99.90
21815;DHT22;11069;48.988;8.450;2022-08-20T01:33:33;20.60;99.90
21815;DHT22;11069;48.988;8.450;2022-08-20T01:35:59;20.60;99.90
21815;DHT22;11069;48.988;8.450;2022-08-20T01:38:26;20.70;99.90
21815;DHT22;11069;48.988;8.450;2022-08-20T01:43:48;20.70;99.90
21815;DHT22;11069;48.988;8.450;2022-08-20T01:46:16;20.80;99.90
21815;DHT22;11069;48.988;8.450;2022-08-20T01:48:42;20.90;99.90
21815;DHT22;11069;48.988;8.450;2022-08-20T01:51:13;20.90;99.90
21815;DHT22;11069;48.988;8.450;2022-08-20T01:53:52;21.00;99.90
21815;DHT22;11069;48.988;8.450;2022-08-20T01:56:24;20.90;99.90
21815;DHT22;11069;48.988;8.450;2022-08-20T01:58:52;21.00;99.90
21815;DHT22;11069;48.988;8.450;2022-08-20T02:01:36;21.00;99.90
21815;DHT22;11069;48.988;8.450;2022-08-20T02:04:04;21.00;99.90
21815;DHT22;11069;48.988;8.450;2022-08-20T02:06:33;21.00;99.90
21815;DHT22;11069;48.988;8.450;2022-08-20T02:09:00;21.00;99.90
21815;DHT22;11069;48.988;8.450;2022-08-20T02:11:28;21.10;99.90
21815;DHT22;11069;48.988;8.450;2022-08-20T02:13:54;21.00;99.90
21815;DHT22;11069;48.988;8.450;2022-08-20T02:16:33;21.10;99.90
21815;DHT22;11069;48.988;8.450;2022-08-20T02:19:10;21.00;99.90
21815;DHT22;11069;48.988;8.450;2022-08-20T02:21:40;21.00;99.90
21815;DHT22;11069;48.988;8.450;2022-08-20T02:24:07;21.00;99.90
21815;DHT22;11069;48.988;8.450;2022-08-20T02:26:33;21.00;99.90
21815;DHT22;11069;48.988;8.450;2022-08-20T02:29:06;21.00;99.90
21815;DHT22;11069;48.988;8.450;2022-08-20T02:31:33;21.00;99.90
21815;DHT22;11069;48.988;8.450;2022-08-20T02:33:59;20.90;99.90
21815;DHT22;11069;48.988;8.450;2022-08-20T02:36:24;20.90;99.90
21815;DHT22;11069;48.988;8.450;2022-08-20T02:38:51;20.90;99.90
21815;DHT22;11069;48.988;8.450;2022-08-20T02:41:17;20.90;99.90
21815;DHT22;11069;48.988;8.450;2022-08-20T02:43:45;20.90;99.90
21815;DHT22;11069;48.988;8.450;2022-08-20T02:46:11;20.90;99.90
21815;DHT22;11069;48.988;8.450;2022-08-20T02:48:38;20.90;99.90
21815;DHT22;11069;48.988;8.450;2022-08-20T02:51:05;20.80;99.90
21815;DHT22;11069;48.988;8.450;2022-08-20T02:53:35;20.90;99.90
21815;DHT22;11069;48.988;8.450;2022-08-20T02:56:03;20.90;99.90
21815;DHT22;11069;48.988;8.450;2022-08-20T02:58:29;20.90;99.90
21815;DHT22;11069;48.988;8.450;2022-08-20T03:00:54;20.80;99.90
21815;DHT22;11069;48.988;8.450;2022-08-20T03:03:21;20.90;99.90
21815;DHT22;11069;48.988;8.450;2022-08-20T03:05:50;20.90;99.90
21815;DHT22;11069;48.988;8.450;2022-08-20T03:08:17;20.80;99.90
21815;DHT22;11069;48.988;8.450;2022-08-20T03:10:45;20.80;99.90
21815;DHT22;11069;48.988;8.450;2022-08-20T03:13:11;20.80;99.90
21815;DHT22;11069;48.988;8.450;2022-08-20T03:15:40;20.70;99.90
21815;DHT22;11069;48.988;8.450;2022-08-20T03:18:06;20.70;99.90
21815;DHT22;11069;48.988;8.450;2022-08-20T03:20:32;20.70;99.90
21815;DHT22;11069;48.988;8.450;2022-08-20T03:22:58;20.70;99.90
21815;DHT22;11069;48.988;8.450;2022-08-20T03:25:24;20.70;99.90
21815;DHT22;11069;48.988;8.450;2022-08-20T03:27:50;20.60;99.90
21815;DHT22;11069;48.988;8.450;2022-08-20T03:30:16;20.60;99.90
21815;DHT22;11069;48.988;8.450;2022-08-20T03:32:43;20.60;99.90
21815;DHT22;11069;48.988;8.450;2022-08-20T03:35:11;20.60;99.90
21815;DHT22;11069;48.988;8.450;2022-08-20T03:37:38;20.60;99.90
21815;DHT22;11069;48.988;8.450;2022-08-20T03:40:09;20.50;99.90
21815;DHT22;11069;48.988;8.450;2022-08-20T03:42:35;20.50;99.90
21815;DHT22;11069;48.988;8.450;2022-08-20T03:45:02;20.60;99.90
21815;DHT22;11069;48.988;8.450;2022-08-20T03:47:28;20.60;99.90
21815;DHT22;11069;48.988;8.450;2022-08-20T03:49:58;20.50;99.90
21815;DHT22;11069;48.988;8.450;2022-08-20T03:52:24;20.50;99.90
21815;DHT22;11069;48.988;8.450;2022-08-20T03:54:50;20.50;99.90
21815;DHT22;11069;48.988;8.450;2022-08-20T03:57:16;20.50;99.90
21815;DHT22;11069;48.988;8.450;2022-08-20T03:59:42;20.50;99.90
21815;DHT22;11069;48.988;8.450;2022-08-20T04:02:11;20.40;99.90
21815;DHT22;11069;48.988;8.450;2022-08-20T04:04:38;20.40;99.90
21815;DHT22;11069;48.988;8.450;2022-08-20T04:07:15;20.50;99.90
21815;DHT22;11069;48.988;8.450;2022-08-20T04:09:41;20.50;99.90
21815;DHT22;11069;48.988;8.450;2022-08-20T04:12:09;20.40;99.90
21815;DHT22;11069;48.988;8.450;2022-08-20T04:14:37;20.40;99.90
21815;DHT22;11069;48.988;8.450;2022-08-20T04:17:08;20.40;99.90
21815;DHT22;11069;48.988;8.450;2022-08-20T04:19:35;20.40;99.90
21815;DHT22;11069;48.988;8.450;2022-08-20T04:22:01;20.40;99.90
21815;DHT22;11069;48.988;8.450;2022-08-20T04:24:27;20.40;99.90
21815;DHT22;11069;48.988;8.450;2022-08-20T04:26:53;20.40;99.90
21815;DHT22;11069;48.988;8.450;2022-08-20T04:29:20;20.40;99.90
21815;DHT22;11069;48.988;8.450;2022-08-20T04:31:47;20.40;99.90
21815;DHT22;11069;48.988;8.450;2022-08-20T04:34:12;20.30;99.90
21815;DHT22;11069;48.988;8.450;2022-08-20T04:36:38;20.30;99.90
21815;DHT22;11069;48.988;8.450;2022-08-20T04:39:05;20.30;99.90
21815;DHT22;11069;48.988;8.450;2022-08-20T04:41:30;20.30;99.90
21815;DHT22;11069;48.988;8.450;2022-08-20T04:43:56;20.30;99.90
21815;DHT22;11069;48.988;8.450;2022-08-20T04:46:24;20.30;99.90
21815;DHT22;11069;48.988;8.450;2022-08-20T04:48:53;20.30;99.90
21815;DHT22;11069;48.988;8.450;2022-08-20T04:51:19;20.30;99.90
21815;DHT22;11069;48.988;8.450;2022-08-20T04:53:45;20.30;99.90
21815;DHT22;11069;48.988;8.450;2022-08-20T04:56:11;20.30;99.90
21815;DHT22;11069;48.988;8.450;2022-08-20T04:58:38;20.40;99.90
21815;DHT22;11069;48.988;8.450;2022-08-20T05:01:07;20.30;99.90
21815;DHT22;11069;48.988;8.450;2022-08-20T05:03:37;20.30;99.90
21815;DHT22;11069;48.988;8.450;2022-08-20T05:06:04;20.20;99.90
21815;DHT22;11069;48.988;8.450;2022-08-20T05:08:30;20.20;99.90
21815;DHT22;11069;48.988;8.450;2022-08-20T05:10:56;20.20;99.90
21815;DHT22;11069;48.988;8.450;2022-08-20T05:13:22;20.20;99.90
21815;DHT22;11069;48.988;8.450;2022-08-20T05:15:48;20.10;99.90
21815;DHT22;11069;48.988;8.450;2022-08-20T05:18:17;20.10;99.90
21815;DHT22;11069;48.988;8.450;2022-08-20T05:20:44;20.10;99.90
21815;DHT22;11069;48.988;8.450;2022-08-20T05:23:11;20.10;99.90
21815;DHT22;11069;48.988;8.450;2022-08-20T05:25:39;20.00;99.90
21815;DHT22;11069;48.988;8.450;2022-08-20T05:28:08;20.00;99.90
21815;DHT22;11069;48.988;8.450;2022-08-20T05:30:36;20.00;99.90
21815;DHT22;11069;48.988;8.450;2022-08-20T05:33:04;19.90;99.90
21815;DHT22;11069;48.988;8.450;2022-08-20T05:35:31;19.90;99.90
21815;DHT22;11069;48.988;8.450;2022-08-20T05:37:59;19.90;99.90
21815;DHT22;11069;48.988;8.450;2022-08-20T05:40:25;19.90;99.90
21815;DHT22;11069;48.988;8.450;2022-08-20T05:42:58;20.00;99.90
21815;DHT22;11069;48.988;8.450;2022-08-20T05:45:29;20.20;99.90
21815;DHT22;11069;48.988;8.450;2022-08-20T05:47:55;20.40;99.90
21815;DHT22;11069;48.988;8.450;2022-08-20T05:50:21;20.50;99.90
21815;DHT22;11069;48.988;8.450;2022-08-20T05:52:47;20.60;99.90
21815;DHT22;11069;48.988;8.450;2022-08-20T05:55:12;20.60;99.90
21815;DHT22;11069;48.988;8.450;2022-08-20T05:57:39;20.70;99.90
21815;DHT22;11069;48.988;8.450;2022-08-20T06:00:10;20.70;99.90
21815;DHT22;11069;48.988;8.450;2022-08-20T06:02:37;20.70;99.90
21815;DHT22;11069;48.988;8.450;2022-08-20T06:05:22;20.70;99.90
21815;DHT22;11069;48.988;8.450;2022-08-20T06:07:48;20.70;99.90
21815;DHT22;11069;48.988;8.450;2022-08-20T06:10:15;20.80;99.90
21815;DHT22;11069;48.988;8.450;2022-08-20T06:12:41;21.10;99.90
21815;DHT22;11069;48.988;8.450;2022-08-20T06:15:09;21.30;99.90
21815;DHT22;11069;48.988;8.450;2022-08-20T06:17:34;21.50;99.90
21815;DHT22;11069;48.988;8.450;2022-08-20T06:20:03;21.60;99.90
21815;DHT22;11069;48.988;8.450;2022-08-20T06:22:31;21.70;99.90
21815;DHT22;11069;48.988;8.450;2022-08-20T06:24:56;21.60;99.90
21815;DHT22;11069;48.988;8.450;2022-08-20T06:27:23;21.60;99.90
21815;DHT22;11069;48.988;8.450;2022-08-20T06:29:49;21.60;99.90
21815;DHT22;11069;48.988;8.450;2022-08-20T06:32:16;21.60;99.90
21815;DHT22;11069;48.988;8.450;2022-08-20T06:34:41;21.70;99.90
21815;DHT22;11069;48.988;8.450;2022-08-20T06:37:24;21.80;99.90
21815;DHT22;11069;48.988;8.450;2022-08-20T06:39:50;21.90;99.90
21815;DHT22;11069;48.988;8.450;2022-08-20T06:42:17;22.00;99.90
21815;DHT22;11069;48.988;8.450;2022-08-20T06:44:45;22.00;99.90
21815;DHT22;11069;48.988;8.450;2022-08-20T06:47:14;22.00;99.90
21815;DHT22;11069;48.988;8.450;2022-08-20T06:49:40;22.10;99.90
21815;DHT22;11069;48.988;8.450;2022-08-20T06:52:05;22.30;99.90
21815;DHT22;11069;48.988;8.450;2022-08-20T06:54:31;22.40;99.90
21815;DHT22;11069;48.988;8.450;2022-08-20T06:56:58;22.30;99.90
21815;DHT22;11069;48.988;8.450;2022-08-20T06:59:24;22.20;99.90
21815;DHT22;11069;48.988;8.450;2022-08-20T07:01:50;22.10;99.90
21815;DHT22;11069;48.988;8.450;2022-08-20T07:04:15;22.00;99.90
21815;DHT22;11069;48.988;8.450;2022-08-20T07:06:42;21.90;99.90
21815;DHT22;11069;48.988;8.450;2022-08-20T07:09:08;21.80;99.90
21815;DHT22;11069;48.988;8.450;2022-08-20T07:11:34;21.80;99.90
21815;DHT22;11069;48.988;8.450;2022-08-20T07:14:00;21.80;99.90
21815;DHT22;11069;48.988;8.450;2022-08-20T07:16:30;21.90;99.90
21815;DHT22;11069;48.988;8.450;2022-08-20T07:18:56;22.00;99.90
21815;DHT22;11069;48.988;8.450;2022-08-20T07:21:23;22.20;99.90
21815;DHT22;11069;48.988;8.450;2022-08-20T07:23:48;22.40;99.90
21815;DHT22;11069;48.988;8.450;2022-08-20T07:26:14;22.60;99.90
21815;DHT22;11069;48.988;8.450;2022-08-20T07:28:40;22.80;99.90
21815;DHT22;11069;48.988;8.450;2022-08-20T07:31:06;23.00;99.90
21815;DHT22;11069;48.988;8.450;2022-08-20T07:33:50;23.30;99.90
21815;DHT22;11069;48.988;8.450;2022-08-20T07:36:16;23.70;99.90
21815;DHT22;11069;48.988;8.450;2022-08-20T07:38:42;23.80;99.90
21815;DHT22;11069;48.988;8.450;2022-08-20T07:41:11;23.70;99.90
21815;DHT22;11069;48.988;8.450;2022-08-20T07:43:40;23.40;99.90
21815;DHT22;11069;48.988;8.450;2022-08-20T07:46:06;22.90;99.90
21815;DHT22;11069;48.988;8.450;2022-08-20T07:48:34;22.80;99.90
21815;DHT22;11069;48.988;8.450;2022-08-20T07:51:02;22.60;99.90
21815;DHT22;11069;48.988;8.450;2022-08-20T07:53:29;22.50;99.90
21815;DHT22;11069;48.988;8.450;2022-08-20T07:55:54;22.60;99.90
21815;DHT22;11069;48.988;8.450;2022-08-20T07:58:21;22.60;99.90
21815;DHT22;11069;48.988;8.450;2022-08-20T08:00:48;22.60;99.90
21815;DHT22;11069;48.988;8.450;2022-08-20T08:03:14;22.50;99.90
21815;DHT22;11069;48.988;8.450;2022-08-20T08:05:42;22.50;99.90
21815;DHT22;11069;48.988;8.450;2022-08-20T08:08:12;22.50;99.90
21815;DHT22;11069;48.988;8.450;2022-08-20T08:10:40;22.60;99.90
21815;DHT22;11069;48.988;8.450;2022-08-20T08:13:09;22.60;99.90
21815;DHT22;11069;48.988;8.450;2022-08-20T08:15:42;22.40;99.90
21815;DHT22;11069;48.988;8.450;2022-08-20T08:18:20;22.20;99.90
21815;DHT22;11069;48.988;8.450;2022-08-20T08:20:47;22.00;99.90
21815;DHT22;11069;48.988;8.450;2022-08-20T08:23:15;21.90;99.90
21815;DHT22;11069;48.988;8.450;2022-08-20T08:25:41;21.70;99.90
21815;DHT22;11069;48.988;8.450;2022-08-20T08:28:08;21.60;99.90
21815;DHT22;11069;48.988;8.450;2022-08-20T08:30:37;21.50;99.90
21815;DHT22;11069;48.988;8.450;2022-08-20T08:33:02;21.50;99.90
21815;DHT22;11069;48.988;8.450;2022-08-20T08:35:46;21.40;99.90
21815;DHT22;11069;48.988;8.450;2022-08-20T08:38:12;21.30;99.90
21815;DHT22;11069;48.988;8.450;2022-08-20T08:40:39;21.20;99.90
21815;DHT22;11069;48.988;8.450;2022-08-20T08:43:05;21.00;99.90
21815;DHT22;11069;48.988;8.450;2022-08-20T08:45:42;20.90;99.90
21815;DHT22;11069;48.988;8.450;2022-08-20T08:48:15;21.00;99.90
21815;DHT22;11069;48.988;8.450;2022-08-20T08:50:45;21.10;99.90
21815;DHT22;11069;48.988;8.450;2022-08-20T08:53:28;21.40;99.90
21815;DHT22;11069;48.988;8.450;2022-08-20T08:55:54;21.50;99.90
21815;DHT22;11069;48.988;8.450;2022-08-20T08:58:20;21.70;99.90
21815;DHT22;11069;48.988;8.450;2022-08-20T09:00:46;21.70;99.90
21815;DHT22;11069;48.988;8.450;2022-08-20T09:03:23;21.80;99.90
21815;DHT22;11069;48.988;8.450;2022-08-20T09:05:56;22.00;99.90
21815;DHT22;11069;48.988;8.450;2022-08-20T09:08:27;22.10;99.90
21815;DHT22;11069;48.988;8.450;2022-08-20T09:10:54;22.20;99.90
21815;DHT22;11069;48.988;8.450;2022-08-20T09:13:24;22.10;99.90
21815;DHT22;11069;48.988;8.450;2022-08-20T09:15:50;22.00;99.90
21815;DHT22;11069;48.988;8.450;2022-08-20T09:18:15;21.80;99.90
21815;DHT22;11069;48.988;8.450;2022-08-20T09:20:41;21.80;99.90
21815;DHT22;11069;48.988;8.450;2022-08-20T09:23:07;21.70;99.90
21815;DHT22;11069;48.988;8.450;2022-08-20T09:25:33;21.80;99.90
21815;DHT22;11069;48.988;8.450;2022-08-20T09:27:58;21.70;99.90
21815;DHT22;11069;48.988;8.450;2022-08-20T09:30:24;21.80;99.90
21815;DHT22;11069;48.988;8.450;2022-08-20T09:32:49;21.90;99.90
21815;DHT22;11069;48.988;8.450;2022-08-20T09:35:15;21.90;99.90
21815;DHT22;11069;48.988;8.450;2022-08-20T09:37:41;22.00;99.90
21815;DHT22;11069;48.988;8.450;2022-08-20T09:40:07;22.20;99.90
21815;DHT22;11069;48.988;8.450;2022-08-20T09:42:35;22.30;99.90
21815;DHT22;11069;48.988;8.450;2022-08-20T09:45:02;22.50;99.90
21815;DHT22;11069;48.988;8.450;2022-08-20T09:47:28;22.60;99.90
21815;DHT22;11069;48.988;8.450;2022-08-20T09:49:53;22.70;99.90
21815;DHT22;11069;48.988;8.450;2022-08-20T09:52:45;23.00;99.90
21815;DHT22;11069;48.988;8.450;2022-08-20T09:55:45;23.70;99.90
21815;DHT22;11069;48.988;8.450;2022-08-20T09:58:35;24.10;99.90
21815;DHT22;11069;48.988;8.450;2022-08-20T10:01:08;24.90;99.90
21815;DHT22;11069;48.988;8.450;2022-08-20T10:03:34;25.30;99.90
21815;DHT22;11069;48.988;8.450;2022-08-20T10:06:00;25.60;99.90
21815;DHT22;11069;48.988;8.450;2022-08-20T10:08:25;25.60;99.90
21815;DHT22;11069;48.988;8.450;2022-08-20T10:10:51;26.10;99.90
21815;DHT22;11069;48.988;8.450;2022-08-20T10:13:17;26.30;99.90
21815;DHT22;11069;48.988;8.450;2022-08-20T10:15:42;26.00;99.90
21815;DHT22;11069;48.988;8.450;2022-08-20T10:18:08;25.70;99.90
21815;DHT22;11069;48.988;8.450;2022-08-20T10:20:35;26.10;99.90
21815;DHT22;11069;48.988;8.450;2022-08-20T10:23:01;27.00;99.80
21815;DHT22;11069;48.988;8.450;2022-08-20T10:25:27;27.40;98.60
21815;DHT22;11069;48.988;8.450;2022-08-20T10:27:53;27.10;98.40
21815;DHT22;11069;48.988;8.450;2022-08-20T10:30:19;27.10;98.50
21815;DHT22;11069;48.988;8.450;2022-08-20T10:32:45;27.40;98.20
21815;DHT22;11069;48.988;8.450;2022-08-20T10:35:11;27.30;97.60
21815;DHT22;11069;48.988;8.450;2022-08-20T10:37:36;27.20;97.60
21815;DHT22;11069;48.988;8.450;2022-08-20T10:40:03;27.20;97.20
21815;DHT22;11069;48.988;8.450;2022-08-20T10:42:28;26.90;97.50
21815;DHT22;11069;48.988;8.450;2022-08-20T10:44:54;26.70;98.10
21815;DHT22;11069;48.988;8.450;2022-08-20T10:47:23;26.90;98.20
21815;DHT22;11069;48.988;8.450;2022-08-20T10:49:51;27.40;97.30
21815;DHT22;11069;48.988;8.450;2022-08-20T10:52:18;27.90;96.10
21815;DHT22;11069;48.988;8.450;2022-08-20T10:54:44;27.70;96.00
21815;DHT22;11069;48.988;8.450;2022-08-20T10:57:22;27.20;96.10
21815;DHT22;11069;48.988;8.450;2022-08-20T10:59:49;27.00;97.10
21815;DHT22;11069;48.988;8.450;2022-08-20T11:02:15;27.10;96.50
21815;DHT22;11069;48.988;8.450;2022-08-20T11:04:41;26.70;96.40
21815;DHT22;11069;48.988;8.450;2022-08-20T11:07:15;25.70;98.90
21815;DHT22;11069;48.988;8.450;2022-08-20T11:09:44;24.60;99.90
21815;DHT22;11069;48.988;8.450;2022-08-20T11:12:10;23.90;99.90
21815;DHT22;11069;48.988;8.450;2022-08-20T11:14:36;23.80;99.90
21815;DHT22;11069;48.988;8.450;2022-08-20T11:17:02;23.90;99.90
21815;DHT22;11069;48.988;8.450;2022-08-20T11:19:28;24.20;99.90
21815;DHT22;11069;48.988;8.450;2022-08-20T11:21:54;24.70;99.90
21815;DHT22;11069;48.988;8.450;2022-08-20T11:24:20;25.10;99.90
21815;DHT22;11069;48.988;8.450;2022-08-20T11:26:47;25.40;99.90
21815;DHT22;11069;48.988;8.450;2022-08-20T11:29:14;25.70;99.70
21815;DHT22;11069;48.988;8.450;2022-08-20T11:31:40;26.00;99.00
21815;DHT22;11069;48.988;8.450;2022-08-20T11:34:05;26.30;98.10
21815;DHT22;11069;48.988;8.450;2022-08-20T11:36:31;26.90;97.80
21815;DHT22;11069;48.988;8.450;2022-08-20T11:38:57;27.00;96.80
21815;DHT22;11069;48.988;8.450;2022-08-20T11:41:23;27.00;96.60
21815;DHT22;11069;48.988;8.450;2022-08-20T11:43:48;27.10;95.80
21815;DHT22;11069;48.988;8.450;2022-08-20T11:46:14;27.20;96.30
21815;DHT22;11069;48.988;8.450;2022-08-20T11:48:40;27.60;96.10
21815;DHT22;11069;48.988;8.450;2022-08-20T11:51:05;27.80;94.80
21815;DHT22;11069;48.988;8.450;2022-08-20T11:53:31;27.40;95.20
21815;DHT22;11069;48.988;8.450;2022-08-20T11:55:56;27.10;95.70
21815;DHT22;11069;48.988;8.450;2022-08-20T11:58:22;26.90;96.00
21815;DHT22;11069;48.988;8.450;2022-08-20T12:00:48;27.10;96.90
21815;DHT22;11069;48.988;8.450;2022-08-20T12:03:13;27.70;95.50
21815;DHT22;11069;48.988;8.450;2022-08-20T12:05:42;27.40;94.10
21815;DHT22;11069;48.988;8.450;2022-08-20T12:08:09;27.90;92.20
21815;DHT22;11069;48.988;8.450;2022-08-20T12:10:35;28.60;91.80
21815;DHT22;11069;48.988;8.450;2022-08-20T12:13:01;28.40;90.50
21815;DHT22;11069;48.988;8.450;2022-08-20T12:15:27;27.90;91.70
21815;DHT22;11069;48.988;8.450;2022-08-20T12:17:53;28.40;90.60
21815;DHT22;11069;48.988;8.450;2022-08-20T12:20:19;29.10;90.50
21815;DHT22;11069;48.988;8.450;2022-08-20T12:22:45;29.00;89.10
21815;DHT22;11069;48.988;8.450;2022-08-20T12:25:11;29.40;87.30
21815;DHT22;11069;48.988;8.450;2022-08-20T12:27:38;28.90;87.10
21815;DHT22;11069;48.988;8.450;2022-08-20T12:30:13;28.60;87.80
21815;DHT22;11069;48.988;8.450;2022-08-20T12:32:39;28.10;90.00
21815;DHT22;11069;48.988;8.450;2022-08-20T12:35:07;28.40;90.00
21815;DHT22;11069;48.988;8.450;2022-08-20T12:37:33;28.60;88.30
21815;DHT22;11069;48.988;8.450;2022-08-20T12:40:02;28.80;87.30
21815;DHT22;11069;48.988;8.450;2022-08-20T12:42:28;29.40;87.40
21815;DHT22;11069;48.988;8.450;2022-08-20T12:44:55;30.10;84.30
21815;DHT22;11069;48.988;8.450;2022-08-20T12:47:29;30.40;83.70
21815;DHT22;11069;48.988;8.450;2022-08-20T12:49:58;30.20;82.00
21815;DHT22;11069;48.988;8.450;2022-08-20T12:52:26;30.30;80.90
21815;DHT22;11069;48.988;8.450;2022-08-20T12:54:53;30.90;79.90
21815;DHT22;11069;48.988;8.450;2022-08-20T12:57:28;31.90;74.80
21815;DHT22;11069;48.988;8.450;2022-08-20T12:59:58;32.40;72.60
21815;DHT22;11069;48.988;8.450;2022-08-20T13:02:25;32.30;72.00
21815;DHT22;11069;48.988;8.450;2022-08-20T13:04:51;32.10;73.70
21815;DHT22;11069;48.988;8.450;2022-08-20T13:07:17;32.70;72.80
21815;DHT22;11069;48.988;8.450;2022-08-20T13:09:42;32.80;70.00
21815;DHT22;11069;48.988;8.450;2022-08-20T13:12:09;33.60;71.00
21815;DHT22;11069;48.988;8.450;2022-08-20T13:14:36;34.10;68.60
21815;DHT22;11069;48.988;8.450;2022-08-20T13:17:02;33.70;68.20
21815;DHT22;11069;48.988;8.450;2022-08-20T13:19:28;33.70;66.40
21815;DHT22;11069;48.988;8.450;2022-08-20T13:21:55;32.50;65.80
21815;DHT22;11069;48.988;8.450;2022-08-20T13:24:21;32.70;68.10
21815;DHT22;11069;48.988;8.450;2022-08-20T13:26:47;33.10;66.60
21815;DHT22;11069;48.988;8.450;2022-08-20T13:29:13;33.50;65.50
21815;DHT22;11069;48.988;8.450;2022-08-20T13:31:40;32.90;67.00
21815;DHT22;11069;48.988;8.450;2022-08-20T13:34:06;32.80;67.30
21815;DHT22;11069;48.988;8.450;2022-08-20T13:36:32;33.70;64.10
21815;DHT22;11069;48.988;8.450;2022-08-20T13:38:59;33.90;63.40
21815;DHT22;11069;48.988;8.450;2022-08-20T13:41:25;33.80;63.50
21815;DHT22;11069;48.988;8.450;2022-08-20T13:43:51;33.60;61.80
21815;DHT22;11069;48.988;8.450;2022-08-20T13:46:17;34.10;62.70
21815;DHT22;11069;48.988;8.450;2022-08-20T13:48:42;34.80;59.80
21815;DHT22;11069;48.988;8.450;2022-08-20T13:51:08;34.60;59.00
21815;DHT22;11069;48.988;8.450;2022-08-20T13:53:34;34.90;57.60
21815;DHT22;11069;48.988;8.450;2022-08-20T13:56:00;34.10;58.20
21815;DHT22;11069;48.988;8.450;2022-08-20T13:58:25;33.20;60.30
21815;DHT22;11069;48.988;8.450;2022-08-20T14:00:51;32.00;61.30
21815;DHT22;11069;48.988;8.450;2022-08-20T14:03:17;33.10;59.90
21815;DHT22;11069;48.988;8.450;2022-08-20T14:05:43;33.60;57.80
21815;DHT22;11069;48.988;8.450;2022-08-20T14:10:36;34.10;55.70
21815;DHT22;11069;48.988;8.450;2022-08-20T14:13:02;34.00;55.80
21815;DHT22;11069;48.988;8.450;2022-08-20T14:15:28;34.70;54.20
21815;DHT22;11069;48.988;8.450;2022-08-20T14:17:55;34.50;55.40
21815;DHT22;11069;48.988;8.450;2022-08-20T14:20:24;34.40;53.90
21815;DHT22;11069;48.988;8.450;2022-08-20T14:22:50;33.50;55.30
21815;DHT22;11069;48.988;8.450;2022-08-20T14:25:18;33.80;56.10
21815;DHT22;11069;48.988;8.450;2022-08-20T14:27:45;34.20;54.50
21815;DHT22;11069;48.988;8.450;2022-08-20T14:30:15;34.30;53.40
21815;DHT22;11069;48.988;8.450;2022-08-20T14:32:41;34.60;52.70
21815;DHT22;11069;48.988;8.450;2022-08-20T14:35:07;34.90;53.70
21815;DHT22;11069;48.988;8.450;2022-08-20T14:37:39;35.10;53.60
21815;DHT22;11069;48.988;8.450;2022-08-20T14:40:08;35.60;52.40
21815;DHT22;11069;48.988;8.450;2022-08-20T14:42:34;34.80;51.30
21815;DHT22;11069;48.988;8.450;2022-08-20T14:45:00;34.60;51.70
21815;DHT22;11069;48.988;8.450;2022-08-20T14:47:35;34.60;51.70
21815;DHT22;11069;48.988;8.450;2022-08-20T14:50:04;35.50;50.60
21815;DHT22;11069;48.988;8.450;2022-08-20T14:52:31;35.70;49.50
21815;DHT22;11069;48.988;8.450;2022-08-20T14:55:05;35.20;49.70
21815;DHT22;11069;48.988;8.450;2022-08-20T14:57:32;34.80;51.60
21815;DHT22;11069;48.988;8.450;2022-08-20T14:59:59;34.80;48.70
21815;DHT22;11069;48.988;8.450;2022-08-20T15:02:24;35.00;49.30
21815;DHT22;11069;48.988;8.450;2022-08-20T15:04:50;35.10;47.80
21815;DHT22;11069;48.988;8.450;2022-08-20T15:07:25;34.70;47.70
21815;DHT22;11069;48.988;8.450;2022-08-20T15:09:52;34.60;49.30
21815;DHT22;11069;48.988;8.450;2022-08-20T15:12:18;35.20;48.60
21815;DHT22;11069;48.988;8.450;2022-08-20T15:14:44;35.40;46.20
21815;DHT22;11069;48.988;8.450;2022-08-20T15:17:11;34.60;46.80
21815;DHT22;11069;48.988;8.450;2022-08-20T15:19:41;34.20;47.30
21815;DHT22;11069;48.988;8.450;2022-08-20T15:22:07;33.60;48.50
21815;DHT22;11069;48.988;8.450;2022-08-20T15:24:32;34.00;47.50
21815;DHT22;11069;48.988;8.450;2022-08-20T15:26:58;34.20;47.80
21815;DHT22;11069;48.988;8.450;2022-08-20T15:29:24;34.10;47.30
21815;DHT22;11069;48.988;8.450;2022-08-20T15:31:50;34.10;46.60
21815;DHT22;11069;48.988;8.450;2022-08-20T15:34:15;34.00;47.50
21815;DHT22;11069;48.988;8.450;2022-08-20T15:36:41;34.30;46.00
21815;DHT22;11069;48.988;8.450;2022-08-20T15:39:06;34.80;45.20
21815;DHT22;11069;48.988;8.450;2022-08-20T15:41:32;34.50;45.60
21815;DHT22;11069;48.988;8.450;2022-08-20T15:43:59;34.90;45.50